Time;durP1;ratioP1;P1;durP2;ratioP2;P2;SDS_P1;SDS_P2;PMS_P1;PMS_P2;Temp;Humidity;BMP_temperature;BMP_pressure;BME280_temperature;BME280_humidity;BME280_pressure;Samples;Min_cycle;Max_cycle;Signal;HPM_P1;HPM_P2
2022/01/29 00:01:19;;;;;;;57.67;24.83;;;;;;;6.43;82.34;102862.66;5071175;28;20025;-89
2022/01/29 00:03:44;;;;;;;61.40;30.00;;;;;;;6.42;82.64;102852.13;5083086;28;20025;-90
2022/01/29 00:06:10;;;;;;;30.92;14.45;;;;;;;6.53;81.79;102845.25;5086620;28;20084;-89
2022/01/29 00:08:35;;;;;;;54.20;27.00;;;;;;;6.53;81.96;102847.88;5074774;28;20073;-90
2022/01/29 00:11:08;;;;;;;56.60;23.13;;;;;;;6.48;82.35;102842.56;5084287;28;20027;-90
2022/01/29 00:13:34;;;;;;;48.17;20.45;;;;;;;6.57;82.34;102833.88;5080849;28;20016;-89
2022/01/29 00:16:00;;;;;;;53.10;24.00;;;;;;;6.52;82.33;102841.72;5086166;28;20019;-89
2022/01/29 00:18:25;;;;;;;58.78;25.38;;;;;;;6.44;82.23;102819.78;5083943;28;20028;-90
2022/01/29 00:20:51;;;;;;;55.78;23.08;;;;;;;6.48;82.78;102839.94;5083914;28;20027;-90
2022/01/29 00:23:16;;;;;;;57.10;24.88;;;;;;;6.62;82.06;102847.94;5079269;28;20043;-89
2022/01/29 00:25:41;;;;;;;44.17;19.08;;;;;;;6.65;81.95;102824.31;5079495;28;20055;-90
2022/01/29 00:28:07;;;;;;;53.63;24.58;;;;;;;6.49;82.43;102825.94;5084352;28;20531;-90
2022/01/29 00:30:39;;;;;;;64.35;30.85;;;;;;;6.57;82.45;102836.50;5077909;28;20041;-90
2022/01/29 00:33:04;;;;;;;40.97;16.58;;;;;;;6.70;81.93;102835.72;5077047;28;20510;-89
2022/01/29 00:35:30;;;;;;;55.42;23.50;;;;;;;6.67;82.02;102821.69;5081305;28;20035;-89
2022/01/29 00:37:55;;;;;;;53.90;25.45;;;;;;;6.52;82.40;102791.78;5079409;28;20032;-89
2022/01/29 00:40:21;;;;;;;55.42;25.48;;;;;;;6.64;82.13;102814.66;5082593;28;20035;-89
2022/01/29 00:42:48;;;;;;;59.58;31.13;;;;;;;6.52;82.25;102811.94;5074609;28;20428;-89
2022/01/29 00:45:13;;;;;;;54.20;23.55;;;;;;;6.51;82.55;102799.66;5091151;28;20054;-89
2022/01/29 00:47:38;;;;;;;55.47;26.80;;;;;;;6.59;82.39;102803.25;5071221;28;20024;-90
2022/01/29 00:50:04;;;;;;;59.83;24.35;;;;;;;6.75;81.83;102826.13;5084867;28;20092;-89
2022/01/29 00:52:29;;;;;;;66.65;33.83;;;;;;;6.68;81.77;102818.22;5075183;28;20430;-90
2022/01/29 00:54:55;;;;;;;61.50;29.15;;;;;;;6.68;82.18;102813.84;5080695;28;20567;-89
2022/01/29 00:57:20;;;;;;;38.92;15.45;;;;;;;6.78;81.66;102799.00;5085313;28;20455;-89
2022/01/29 00:59:46;;;;;;;57.83;24.10;;;;;;;6.68;82.26;102797.19;5083357;28;20496;-89
2022/01/29 01:02:11;;;;;;;24.55;12.25;;;;;;;6.73;81.78;102784.94;5084159;28;20028;-91
2022/01/29 01:04:39;;;;;;;57.88;24.00;;;;;;;6.76;82.05;102798.09;5080703;28;20061;-89
2022/01/29 01:07:05;;;;;;;57.95;25.83;;;;;;;6.69;82.26;102783.16;5084971;28;20067;-89
2022/01/29 01:09:31;;;;;;;59.30;26.48;;;;;;;6.73;82.44;102777.94;5080447;28;20088;-89
2022/01/29 01:11:56;;;;;;;57.35;31.90;;;;;;;6.56;82.72;102756.78;5077666;28;20036;-90
2022/01/29 01:14:21;;;;;;;61.47;31.30;;;;;;;6.61;82.79;102767.31;5076800;28;20073;-89
2022/01/29 01:16:47;;;;;;;45.63;20.65;;;;;;;6.67;82.89;102753.34;5081684;28;21936;-89
2022/01/29 01:19:12;;;;;;;48.05;23.20;;;;;;;6.68;82.91;102750.75;5074949;28;20110;-89
2022/01/29 01:21:38;;;;;;;56.13;27.13;;;;;;;6.72;83.18;102743.78;5088631;28;20028;-90
2022/01/29 01:24:03;;;;;;;66.03;26.83;;;;;;;6.65;83.65;102741.06;5083787;28;20028;-88
2022/01/29 01:26:29;;;;;;;74.28;38.13;;;;;;;6.46;84.97;102740.94;5086774;28;20063;-90
2022/01/29 01:28:54;;;;;;;50.22;23.08;;;;;;;6.55;84.09;102725.25;5085795;28;20027;-90
2022/01/29 01:31:19;;;;;;;52.42;22.67;;;;;;;6.64;83.91;102714.78;5085769;28;20048;-90
2022/01/29 01:33:46;;;;;;;51.92;22.77;;;;;;;6.64;83.76;102713.03;5090099;28;20372;-89
2022/01/29 01:36:14;;;;;;;61.97;28.83;;;;;;;6.57;84.14;102694.59;5084591;28;20028;-90
2022/01/29 01:38:45;;;;;;;62.35;27.17;;;;;;;6.65;83.53;102708.66;5083622;28;20402;-89
2022/01/29 01:41:14;;;;;;;63.42;30.25;;;;;;;6.63;84.34;102713.91;5086562;28;20394;-89
2022/01/29 01:43:40;;;;;;;58.33;29.33;;;;;;;6.53;84.81;102722.63;5087167;28;20040;-90
2022/01/29 01:46:05;;;;;;;59.15;29.45;;;;;;;6.55;84.30;102718.25;5089036;28;20020;-90
2022/01/29 01:48:30;;;;;;;40.90;19.13;;;;;;;6.60;84.27;102716.53;5088959;28;20028;-90
2022/01/29 01:50:57;;;;;;;35.70;16.67;;;;;;;6.60;84.16;102702.50;5075853;28;20045;-89
2022/01/29 01:53:23;;;;;;;64.15;34.17;;;;;;;6.46;85.44;102712.03;5075846;28;20023;-89
2022/01/29 01:55:48;;;;;;;61.08;26.73;;;;;;;6.46;85.28;102691.03;5087643;28;20032;-89
2022/01/29 01:58:14;;;;;;;55.90;27.35;;;;;;;6.41;85.83;102682.25;5078379;28;20040;-88
2022/01/29 02:00:39;;;;;;;53.92;26.90;;;;;;;6.41;85.69;102688.38;5082976;28;20027;-89
2022/01/29 02:03:05;;;;;;;61.35;28.77;;;;;;;6.33;86.67;102687.44;5085165;28;20427;-90
2022/01/29 02:05:30;;;;;;;52.42;23.40;;;;;;;6.32;87.35;102685.69;5089567;28;20035;-90
2022/01/29 02:07:58;;;;;;;47.00;21.55;;;;;;;6.15;87.85;102672.41;5085362;28;20095;-89
2022/01/29 02:10:26;;;;;;;77.13;35.80;;;;;;;6.12;88.32;102673.28;5080074;28;20480;-89
2022/01/29 02:12:56;;;;;;;69.63;33.40;;;;;;;6.11;88.43;102665.41;5081875;28;20024;-89
2022/01/29 02:15:22;;;;;;;57.25;30.35;;;;;;;6.11;88.34;102657.53;5081786;28;20106;-90
2022/01/29 02:17:48;;;;;;;69.03;31.42;;;;;;;6.10;88.60;102656.63;5087921;28;20305;-90
2022/01/29 02:20:16;;;;;;;65.88;34.95;;;;;;;6.09;88.78;102665.38;5079373;28;20120;-90
2022/01/29 02:22:43;;;;;;;68.80;33.53;;;;;;;6.21;87.96;102656.72;5085675;28;20059;-89
2022/01/29 02:25:49;;;;;;;47.00;22.20;;;;;;;6.36;87.63;102664.69;5081198;28;20425;-89
2022/01/29 02:28:23;;;;;;;41.63;18.40;;;;;;;6.26;87.59;102652.38;5037353;28;20471;-91
2022/01/29 02:30:56;;;;;;;53.55;22.23;;;;;;;6.29;87.88;102657.63;5043212;28;20048;-89
2022/01/29 02:33:21;;;;;;;61.83;32.33;;;;;;;6.14;88.73;102647.03;5064241;28;20037;-89
2022/01/29 02:35:49;;;;;;;61.85;29.65;;;;;;;6.31;88.29;102652.41;5076579;28;20063;-90
2022/01/29 02:38:18;;;;;;;52.88;25.13;;;;;;;6.23;88.99;102651.47;5080616;28;20093;-89
2022/01/29 02:40:49;;;;;;;43.58;20.45;;;;;;;6.29;88.96;102649.75;5085951;28;20039;-90
2022/01/29 02:43:19;;;;;;;53.60;27.58;;;;;;;6.19;89.70;102650.56;5082404;28;20028;-90
2022/01/29 02:45:45;;;;;;;57.33;23.70;;;;;;;6.33;89.17;102648.91;5083223;28;20082;-89
2022/01/29 02:48:11;;;;;;;59.58;26.65;;;;;;;6.23;89.09;102639.22;5087247;28;20491;-90
2022/01/29 02:50:38;;;;;;;47.88;23.17;;;;;;;6.44;88.44;102634.97;5080241;28;20032;-90
2022/01/29 02:53:04;;;;;;;40.00;17.65;;;;;;;6.42;88.47;102647.22;5075464;28;20020;-91
2022/01/29 02:55:29;;;;;;;46.97;23.70;;;;;;;6.41;88.21;102627.94;5083590;28;20043;-90
2022/01/29 02:57:55;;;;;;;43.20;19.75;;;;;;;6.36;89.20;102632.28;5085995;28;20331;-90
2022/01/29 03:00:21;;;;;;;49.42;21.63;;;;;;;6.41;88.75;102629.69;5080134;28;20028;-90
2022/01/29 03:02:47;;;;;;;50.42;22.70;;;;;;;6.28;89.44;102616.47;5084318;28;20032;-91
2022/01/29 03:05:12;;;;;;;56.72;27.35;;;;;;;6.34;89.06;102618.25;5086926;28;20127;-91
2022/01/29 03:07:38;;;;;;;48.00;21.67;;;;;;;6.46;88.80;102631.47;5087790;28;20427;-91
2022/01/29 03:10:04;;;;;;;39.92;18.23;;;;;;;6.42;89.01;102613.94;5083510;28;20040;-92
2022/01/29 03:12:30;;;;;;;54.30;23.48;;;;;;;6.39;89.48;102616.56;5079873;28;20430;-91
2022/01/29 03:14:55;;;;;;;62.47;29.00;;;;;;;6.46;88.77;102614.84;5085182;28;20434;-90
2022/01/29 03:17:21;;;;;;;57.60;27.48;;;;;;;6.31;89.81;102603.38;5082885;28;20699;-90
2022/01/29 03:19:46;;;;;;;52.58;22.98;;;;;;;6.45;89.55;102611.34;5080760;28;20036;-89
2022/01/29 03:22:11;;;;;;;51.53;23.67;;;;;;;6.43;89.62;102607.81;5081673;28;20028;-90
2022/01/29 03:24:37;;;;;;;57.85;26.48;;;;;;;6.43;89.15;102584.16;5083538;28;20556;-91
2022/01/29 03:27:03;;;;;;;48.22;19.77;;;;;;;6.46;89.44;102592.06;5070499;28;20035;-91
2022/01/29 03:29:28;;;;;;;42.78;16.92;;;;;;;6.41;89.67;102595.53;5084246;28;20407;-91
2022/01/29 03:31:54;;;;;;;54.08;23.17;;;;;;;6.35;89.85;102589.41;5085970;28;20044;-91
2022/01/29 03:34:19;;;;;;;57.03;24.52;;;;;;;6.35;90.16;102571.00;5085660;28;20115;-91
2022/01/29 03:36:45;;;;;;;42.17;17.73;;;;;;;6.50;89.31;102582.47;5079380;28;20102;-90
2022/01/29 03:39:10;;;;;;;51.00;24.20;;;;;;;6.45;88.97;102574.56;5076363;28;20507;-91
2022/01/29 03:41:37;;;;;;;45.28;21.27;;;;;;;6.46;89.28;102571.03;5081145;28;20044;-91
2022/01/29 03:44:04;;;;;;;56.00;24.70;;;;;;;6.41;89.89;102574.53;5077655;28;20549;-90
2022/01/29 03:46:29;;;;;;;39.22;19.63;;;;;;;6.48;89.26;102563.16;5082108;28;20118;-90
2022/01/29 03:48:54;;;;;;;58.83;25.67;;;;;;;6.33;90.24;102563.97;5079965;28;20461;-90
2022/01/29 03:51:20;;;;;;;42.05;20.65;;;;;;;6.49;89.50;102563.19;5075141;28;20040;-91
2022/01/29 03:53:47;;;;;;;60.78;28.00;;;;;;;6.42;90.05;102582.41;5082085;28;20295;-89
2022/01/29 03:56:13;;;;;;;66.65;29.92;;;;;;;6.37;90.11;102566.63;5084420;28;20442;-90
2022/01/29 03:58:39;;;;;;;60.08;25.23;;;;;;;6.46;89.74;102563.16;5083924;28;20058;-90
2022/01/29 04:01:04;;;;;;;48.75;21.80;;;;;;;6.46;89.72;102559.66;5085683;28;20066;-91
2022/01/29 04:03:29;;;;;;;55.35;24.92;;;;;;;6.39;89.72;102558.78;5079320;28;20040;-91
2022/01/29 04:05:55;;;;;;;55.08;25.17;;;;;;;6.49;89.32;102557.94;5086139;28;20032;-91
2022/01/29 04:08:20;;;;;;;49.95;22.70;;;;;;;6.47;89.63;102553.53;5076381;28;20025;-92
2022/01/29 04:10:47;;;;;;;38.45;16.63;;;;;;;6.64;88.91;102565.00;5083706;28;20470;-91
2022/01/29 04:13:14;;;;;;;53.22;22.63;;;;;;;6.62;89.09;102569.34;5079784;28;20056;-91
2022/01/29 04:15:40;;;;;;;52.60;26.15;;;;;;;6.64;89.32;102575.50;5083030;28;20493;-91
2022/01/29 04:18:05;;;;;;;45.15;20.77;;;;;;;6.75;88.52;102559.78;5084518;28;20063;-91
2022/01/29 04:20:31;;;;;;;53.92;25.52;;;;;;;6.68;89.15;102560.63;5086376;28;20024;-90
2022/01/29 04:22:56;;;;;;;49.53;20.42;;;;;;;6.73;88.69;102557.16;5085367;28;20050;-91
2022/01/29 04:25:23;;;;;;;40.72;19.10;;;;;;;6.83;88.30;102551.03;5074345;28;20024;-90
2022/01/29 04:27:48;;;;;;;43.05;18.15;;;;;;;6.74;88.92;102539.63;5085300;28;20403;-90
2022/01/29 04:30:29;;;;;;;34.85;14.38;;;;;;;6.77;88.99;102537.00;5083271;28;20048;-91
2022/01/29 04:33:00;;;;;;;34.47;15.35;;;;;;;6.77;89.33;102531.75;5078921;28;20056;-90
2022/01/29 04:35:27;;;;;;;50.05;23.02;;;;;;;6.74;89.31;102534.38;5076291;28;20020;-90
2022/01/29 04:37:52;;;;;;;47.45;21.00;;;;;;;6.78;88.87;102525.63;5081088;28;20039;-90
2022/01/29 04:40:20;;;;;;;31.40;14.48;;;;;;;6.89;88.73;102537.91;5077629;28;20452;-91
2022/01/29 04:42:45;;;;;;;51.10;23.88;;;;;;;6.80;89.02;102523.84;5084232;28;20027;-90
2022/01/29 04:45:12;;;;;;;47.03;21.90;;;;;;;6.85;88.79;102522.13;5079172;28;20070;-90
2022/01/29 04:47:37;;;;;;;46.78;20.40;;;;;;;6.99;88.70;102528.28;5082131;28;20024;-91
2022/01/29 04:50:04;;;;;;;45.30;17.95;;;;;;;7.04;88.65;102529.19;5075053;28;20020;-90
2022/01/29 04:52:29;;;;;;;32.58;13.57;;;;;;;7.06;87.79;102514.28;5082222;28;20593;-91
2022/01/29 04:54:55;;;;;;;45.03;18.45;;;;;;;7.00;88.71;102523.94;5082106;28;20062;-90
2022/01/29 04:57:20;;;;;;;53.70;23.35;;;;;;;7.02;88.77;102520.41;5079751;28;20390;-90
2022/01/29 04:59:45;;;;;;;39.05;19.85;;;;;;;7.09;88.77;102514.28;5086379;28;20043;-90
2022/01/29 05:02:10;;;;;;;38.63;16.45;;;;;;;7.09;88.70;102505.53;5079008;28;20040;-90
2022/01/29 05:04:36;;;;;;;45.53;18.73;;;;;;;7.10;88.30;102494.13;5081899;28;20054;-91
2022/01/29 05:07:01;;;;;;;47.50;22.42;;;;;;;7.11;88.53;102494.13;5080656;28;20539;-91
2022/01/29 05:09:27;;;;;;;46.90;19.80;;;;;;;7.14;88.51;102493.25;5082799;28;20020;-90
2022/01/29 05:11:53;;;;;;;46.67;21.00;;;;;;;7.22;88.34;102507.25;5080736;28;20024;-90
2022/01/29 05:14:36;;;;;;;44.75;21.15;;;;;;;7.15;88.64;102497.63;5082349;28;20055;-90
2022/01/29 05:27:52;;;;;;;48.58;24.25;;;;;;;7.29;88.53;102484.50;5074900;28;20063;-91
2022/01/29 05:30:17;;;;;;;34.05;14.90;;;;;;;7.19;88.68;102465.19;5071400;28;20425;-91
2022/01/29 05:32:42;;;;;;;44.65;18.05;;;;;;;7.22;88.96;102473.06;5080494;28;20023;-90
2022/01/29 05:35:08;;;;;;;45.35;18.00;;;;;;;7.23;89.10;102479.19;5082154;28;20534;-90
2022/01/29 05:37:33;;;;;;;36.03;15.85;;;;;;;7.27;88.30;102479.19;5082695;28;20082;-91
2022/01/29 05:39:59;;;;;;;43.58;18.65;;;;;;;7.39;88.54;102497.63;5076444;28;20028;-90
2022/01/29 05:42:24;;;;;;;60.50;26.75;;;;;;;7.30;88.63;102495.00;5080277;28;20512;-90
2022/01/29 05:44:49;;;;;;;46.45;20.00;;;;;;;7.37;88.56;102480.97;5069502;28;20032;-90
2022/01/29 05:47:15;;;;;;;62.13;28.27;;;;;;;7.41;88.77;102485.38;5081189;28;20025;-90
2022/01/29 05:49:40;;;;;;;47.50;20.70;;;;;;;7.46;88.02;102469.56;5079789;28;20021;-90
2022/01/29 05:52:05;;;;;;;52.17;23.17;;;;;;;7.43;88.31;102480.09;5083354;28;20024;-90
2022/01/29 05:54:31;;;;;;;41.53;18.45;;;;;;;7.50;88.76;102481.81;5081090;28;20017;-90
2022/01/29 05:56:57;;;;;;;52.85;22.30;;;;;;;7.44;88.63;102471.31;5082477;28;20035;-91
2022/01/29 05:59:22;;;;;;;31.85;14.82;;;;;;;7.50;88.31;102466.03;5074528;28;20460;-91
2022/01/29 06:01:47;;;;;;;54.17;22.50;;;;;;;7.55;88.47;102473.91;5082550;28;20036;-91
2022/01/29 06:04:13;;;;;;;57.28;24.98;;;;;;;7.49;89.10;102471.31;5084952;28;20024;-90
2022/01/29 06:06:38;;;;;;;49.13;21.55;;;;;;;7.45;89.16;102454.63;5085723;28;20043;-91
2022/01/29 06:09:04;;;;;;;55.97;24.38;;;;;;;7.50;88.33;102459.91;5082543;28;20530;-90
2022/01/29 06:11:33;;;;;;;54.55;25.13;;;;;;;7.51;88.65;102456.41;5089797;28;20020;-91
2022/01/29 06:13:59;;;;;;;59.88;27.80;;;;;;;7.52;88.70;102463.41;5087580;28;20032;-90
2022/01/29 06:16:25;;;;;;;59.90;27.05;;;;;;;7.51;88.95;102457.28;5088989;28;20023;-90
2022/01/29 06:18:50;;;;;;;56.08;27.08;;;;;;;7.56;88.36;102454.66;5082400;28;20495;-90
2022/01/29 06:21:15;;;;;;;54.30;24.92;;;;;;;7.58;88.37;102459.00;5088672;28;20028;-90
2022/01/29 06:23:42;;;;;;;55.05;25.95;;;;;;;7.64;88.19;102466.88;5085766;28;20064;-90
2022/01/29 06:26:11;;;;;;;66.03;28.60;;;;;;;7.57;88.51;102452.00;5085186;28;20519;-91
2022/01/29 06:28:38;;;;;;;53.10;23.85;;;;;;;7.62;88.78;102460.75;5082867;28;20129;-89
2022/01/29 06:31:05;;;;;;;63.20;27.50;;;;;;;7.67;88.57;102453.72;5086137;28;20050;-91
2022/01/29 06:33:30;;;;;;;36.50;17.23;;;;;;;7.68;88.15;102450.22;5101984;28;20104;-90
2022/01/29 06:35:56;;;;;;;56.55;23.73;;;;;;;7.69;88.14;102445.81;5088309;28;20054;-90
2022/01/29 06:38:22;;;;;;;63.65;30.63;;;;;;;7.64;88.29;102444.97;5087255;28;20028;-90
2022/01/29 06:40:47;;;;;;;60.83;30.70;;;;;;;7.68;88.41;102444.06;5087909;28;20020;-91
2022/01/29 06:43:13;;;;;;;59.92;24.20;;;;;;;7.71;88.62;102432.66;5086548;28;20074;-90
2022/01/29 06:45:40;;;;;;;37.85;17.88;;;;;;;7.79;88.24;102434.41;5087113;28;20485;-90
2022/01/29 06:48:06;;;;;;;56.10;25.63;;;;;;;7.63;88.82;102430.91;5079950;28;20025;-90
2022/01/29 06:50:31;;;;;;;53.10;22.85;;;;;;;7.75;88.38;102434.41;5077571;28;20016;-91
2022/01/29 06:52:57;;;;;;;44.08;17.58;;;;;;;7.81;88.30;102432.63;5084393;28;20373;-90
2022/01/29 06:55:23;;;;;;;52.25;25.40;;;;;;;7.77;88.17;102420.34;5082519;28;20128;-90
2022/01/29 06:57:49;;;;;;;53.47;20.95;;;;;;;7.62;88.87;102402.84;5081555;28;20044;-90
2022/01/29 07:00:15;;;;;;;51.97;23.70;;;;;;;7.79;88.53;102420.38;5071566;28;20086;-91
2022/01/29 07:02:41;;;;;;;44.83;20.13;;;;;;;7.75;88.96;102414.22;5078435;28;20024;-90
2022/01/29 07:05:09;;;;;;;51.38;23.75;;;;;;;7.81;88.72;102418.59;5083601;28;20024;-90
2022/01/29 07:07:34;;;;;;;42.65;19.50;;;;;;;7.83;88.61;102412.47;5086862;28;20019;-90
2022/01/29 07:10:00;;;;;;;48.33;24.90;;;;;;;7.84;88.48;102406.31;5083876;28;20093;-90
2022/01/29 07:12:26;;;;;;;48.75;23.10;;;;;;;7.86;88.80;102417.69;5082032;28;20028;-90
2022/01/29 07:14:52;;;;;;;41.35;21.30;;;;;;;7.90;88.82;102413.28;5075474;28;20023;-90
2022/01/29 07:17:18;;;;;;;36.08;15.63;;;;;;;7.94;88.32;102409.78;5079526;28;20203;-90
2022/01/29 07:19:45;;;;;;;45.38;20.13;;;;;;;7.88;88.69;102400.16;5082067;28;20064;-91
2022/01/29 07:22:11;;;;;;;61.55;29.60;;;;;;;7.90;89.07;102403.63;5079781;28;20028;-90
2022/01/29 07:24:37;;;;;;;44.67;21.45;;;;;;;7.94;89.11;102412.41;5075248;28;20043;-90
2022/01/29 07:27:04;;;;;;;47.83;23.27;;;;;;;7.97;89.36;102416.75;5072030;28;20059;-91
2022/01/29 07:29:29;;;;;;;51.80;22.90;;;;;;;7.88;89.77;102402.78;5080836;28;20049;-91
2022/01/29 07:31:58;;;;;;;60.17;25.80;;;;;;;7.87;90.26;102402.75;5077969;28;20055;-91
2022/01/29 07:34:25;;;;;;;48.72;21.88;;;;;;;7.88;90.03;102410.69;5078752;28;20555;-91
2022/01/29 07:36:55;;;;;;;59.08;27.08;;;;;;;7.89;90.02;102415.06;5081801;28;20483;-91
2022/01/29 07:39:22;;;;;;;54.38;22.50;;;;;;;7.88;90.26;102402.78;5072870;28;20284;-91
2022/01/29 07:41:48;;;;;;;45.20;22.73;;;;;;;7.93;90.19;102406.28;5070059;28;20603;-91
2022/01/29 07:44:14;;;;;;;53.60;22.90;;;;;;;7.96;90.22;102408.00;5078348;28;20028;-91
2022/01/29 07:46:40;;;;;;;57.60;27.65;;;;;;;7.99;89.90;102402.72;5072141;28;20035;-91
2022/01/29 07:49:06;;;;;;;39.33;17.73;;;;;;;8.00;89.80;102400.97;5081594;28;20035;-91
2022/01/29 07:51:31;;;;;;;42.97;19.52;;;;;;;8.04;90.06;102406.22;5074857;28;20040;-91
2022/01/29 07:53:57;;;;;;;55.30;25.80;;;;;;;7.99;90.86;102405.34;5084516;28;20047;-92
2022/01/29 07:56:22;;;;;;;56.72;25.63;;;;;;;8.04;90.49;102398.31;5085082;28;20035;-90
2022/01/29 07:58:49;;;;;;;54.08;27.38;;;;;;;8.05;90.58;102392.16;5081413;28;20076;-90
2022/01/29 08:01:14;;;;;;;50.92;23.88;;;;;;;8.12;90.39;102396.53;5082225;28;20255;-91
2022/01/29 08:03:40;;;;;;;47.35;21.30;;;;;;;8.23;90.00;102395.59;5073119;28;20040;-92
2022/01/29 08:06:06;;;;;;;49.10;21.25;;;;;;;8.19;90.14;102382.41;5078176;28;20035;-91
2022/01/29 08:08:31;;;;;;;55.08;25.98;;;;;;;8.17;90.53;102378.06;5085815;28;20439;-91
2022/01/29 08:10:57;;;;;;;45.13;23.60;;;;;;;8.25;89.93;102375.34;5082470;28;20062;-90
2022/01/29 08:13:22;;;;;;;44.97;22.88;;;;;;;8.23;89.82;102371.88;5080405;28;20024;-91
2022/01/29 08:15:47;;;;;;;36.00;17.38;;;;;;;8.36;89.57;102382.38;5087932;28;20482;-91
2022/01/29 08:18:13;;;;;;;52.03;23.73;;;;;;;8.34;90.39;102380.56;5080861;28;20601;-90
2022/01/29 08:20:41;;;;;;;45.97;20.65;;;;;;;8.37;89.79;102363.03;5081409;28;20063;-92
2022/01/29 08:23:10;;;;;;;42.20;19.55;;;;;;;8.43;90.08;102365.59;5070409;28;20032;-92
2022/01/29 08:25:37;;;;;;;51.42;25.13;;;;;;;8.52;89.63;102367.31;5075380;28;20130;-92
2022/01/29 08:28:04;;;;;;;50.55;24.60;;;;;;;8.52;90.28;102367.31;5085194;28;20035;-91
2022/01/29 08:30:31;;;;;;;38.10;20.30;;;;;;;8.63;89.51;102367.25;5078289;28;20052;-91
2022/01/29 08:32:56;;;;;;;41.80;18.88;;;;;;;8.64;89.03;102361.97;5086182;28;20043;-91
2022/01/29 08:35:22;;;;;;;41.13;20.17;;;;;;;8.65;89.16;102368.09;5086315;28;20020;-92
2022/01/29 08:37:47;;;;;;;44.70;22.52;;;;;;;8.63;89.54;102352.31;5082589;28;20596;-91
2022/01/29 08:40:13;;;;;;;40.72;23.55;;;;;;;8.63;88.94;102357.59;5073467;28;20070;-92
2022/01/29 08:42:39;;;;;;;30.65;14.70;;;;;;;8.75;88.65;102345.16;5081965;28;20028;-91
2022/01/29 08:45:06;;;;;;;42.10;19.38;;;;;;;8.85;88.69;102352.09;5078317;28;20024;-92
2022/01/29 08:47:32;;;;;;;36.90;19.92;;;;;;;8.84;88.32;102342.47;5075631;28;20055;-91
2022/01/29 08:49:57;;;;;;;35.97;19.25;;;;;;;8.80;88.61;102341.59;5079996;28;20027;-91
2022/01/29 08:52:22;;;;;;;45.35;26.55;;;;;;;8.85;88.33;102344.19;5074413;28;20035;-90
2022/01/29 08:54:48;;;;;;;44.40;23.33;;;;;;;8.92;88.06;102346.78;5081041;28;20028;-90
2022/01/29 08:57:13;;;;;;;33.40;17.10;;;;;;;8.95;88.29;102340.59;5082718;28;20031;-92
2022/01/29 08:59:38;;;;;;;45.20;25.63;;;;;;;8.97;88.16;102345.88;5076366;28;20119;-91
2022/01/29 09:02:04;;;;;;;36.45;18.73;;;;;;;9.00;87.89;102338.81;5095195;27;20362;-91
2022/01/29 09:04:30;;;;;;;39.13;21.10;;;;;;;8.96;88.50;102341.50;5079598;28;20040;-91
2022/01/29 09:06:55;;;;;;;36.45;20.95;;;;;;;8.99;87.91;102326.47;5081820;28;20111;-93
2022/01/29 09:09:25;;;;;;;41.65;23.75;;;;;;;8.99;88.16;102337.03;5074804;28;20394;-91
2022/01/29 09:11:51;;;;;;;37.83;19.60;;;;;;;8.97;87.94;102317.72;5077135;28;20531;-91
2022/01/29 09:14:17;;;;;;;32.88;17.27;;;;;;;9.04;87.81;102313.25;5075125;28;20051;-91
2022/01/29 09:16:43;;;;;;;35.67;16.88;;;;;;;9.13;87.64;102321.06;5084020;28;20434;-91
2022/01/29 09:19:08;;;;;;;36.22;20.17;;;;;;;9.22;87.19;102325.38;5077817;28;20028;-91
2022/01/29 09:21:33;;;;;;;38.55;17.95;;;;;;;9.24;87.67;102318.34;5079108;28;20103;-91
2022/01/29 09:23:59;;;;;;;28.45;15.15;;;;;;;9.36;86.72;102319.06;5084189;28;20026;-91
2022/01/29 09:26:24;;;;;;;36.13;20.13;;;;;;;9.40;86.35;102309.34;5081744;28;20024;-91
2022/01/29 09:28:50;;;;;;;35.83;20.77;;;;;;;9.36;86.65;102316.41;5077586;28;20016;-91
2022/01/29 09:31:15;;;;;;;27.48;15.23;;;;;;;9.49;86.52;102316.28;5076143;28;20043;-92
2022/01/29 09:33:40;;;;;;;30.88;19.48;;;;;;;9.44;86.75;102325.13;5074221;28;20031;-92
2022/01/29 09:36:06;;;;;;;32.70;19.23;;;;;;;9.53;86.16;102326.78;5082657;28;20036;-91
2022/01/29 09:38:31;;;;;;;29.13;16.60;;;;;;;9.48;86.62;102322.47;5079650;28;20111;-91
2022/01/29 09:40:57;;;;;;;33.97;19.95;;;;;;;9.45;86.13;102324.22;5077556;28;20555;-90
2022/01/29 09:43:26;;;;;;;33.72;23.23;;;;;;;9.33;86.58;102310.31;5075344;28;20062;-92
2022/01/29 09:45:52;;;;;;;24.98;15.60;;;;;;;9.61;85.82;102324.94;5080795;28;20039;-91
2022/01/29 09:48:26;;;;;;;29.67;16.17;;;;;;;9.63;86.14;102328.41;5079798;28;20020;-91
2022/01/29 09:50:52;;;;;;;27.95;13.90;;;;;;;9.65;85.98;102328.38;5090719;28;20398;-90
2022/01/29 09:53:18;;;;;;;27.60;15.63;;;;;;;9.64;86.01;102318.72;5074614;28;20487;-91
2022/01/29 09:55:44;;;;;;;22.65;10.57;;;;;;;9.60;85.65;102315.25;5081225;28;20104;-91
2022/01/29 09:58:10;;;;;;;26.77;13.27;;;;;;;9.69;85.54;102324.81;5081271;28;20036;-91
2022/01/29 10:00:36;;;;;;;27.73;16.35;;;;;;;9.73;85.47;102333.59;5079471;28;20122;-91
2022/01/29 10:03:11;;;;;;;29.05;17.27;;;;;;;9.73;85.57;102328.31;5059277;28;20574;-91
2022/01/29 10:05:41;;;;;;;27.15;16.33;;;;;;;9.76;85.81;102331.78;5084628;28;20089;-91
2022/01/29 10:08:07;;;;;;;31.00;18.25;;;;;;;9.85;84.87;102326.38;5073000;28;20024;-90
2022/01/29 10:10:50;;;;;;;27.13;17.25;;;;;;;9.81;84.62;102326.44;5085617;28;20490;-92
2022/01/29 10:13:33;;;;;;;29.27;18.23;;;;;;;10.00;84.49;102329.72;5081599;28;20054;-90
2022/01/29 10:16:11;;;;;;;26.40;14.10;;;;;;;9.95;84.64;102312.16;5074173;28;20503;-92
2022/01/29 10:18:39;;;;;;;25.30;12.70;;;;;;;10.04;84.98;102321.72;5085242;28;20035;-92
2022/01/29 10:21:08;;;;;;;27.85;19.73;;;;;;;9.89;84.69;102316.66;5080863;28;20040;-91
2022/01/29 10:23:34;;;;;;;21.05;12.80;;;;;;;10.00;83.94;102309.44;5085518;28;20024;-92
2022/01/29 10:26:01;;;;;;;24.70;13.90;;;;;;;10.06;83.97;102304.06;5082512;28;20085;-91
2022/01/29 10:28:27;;;;;;;22.67;15.80;;;;;;;10.13;82.98;102308.38;5076325;28;20027;-91
2022/01/29 10:31:01;;;;;;;28.25;15.75;;;;;;;10.28;83.62;102306.44;5080382;28;20082;-90
2022/01/29 10:33:28;;;;;;;24.27;14.35;;;;;;;10.36;82.90;102292.19;5076928;28;20024;-91
2022/01/29 10:35:58;;;;;;;24.98;16.02;;;;;;;10.35;82.81;102278.97;5079487;28;20024;-91
2022/01/29 10:38:41;;;;;;;20.45;13.48;;;;;;;10.36;82.87;102286.03;5075143;28;20030;-92
2022/01/29 10:41:19;;;;;;;;;;;;;;;10.44;82.40;102276.19;5073498;28;20504;-91
2022/01/29 10:44:18;;;;;;;19.58;11.57;;;;;;;10.49;82.02;102269.06;5076772;28;20755;-91
2022/01/29 10:46:52;;;;;;;15.20;10.00;;;;;;;10.53;81.86;102273.38;5081868;28;20034;-92
2022/01/29 10:49:27;;;;;;;23.30;14.45;;;;;;;10.46;82.09;102251.47;5081720;28;20035;-91
2022/01/29 10:52:04;;;;;;;21.65;12.80;;;;;;;10.60;81.93;102263.59;5081390;28;20036;-91
2022/01/29 10:54:33;;;;;;;20.58;11.52;;;;;;;10.66;81.57;102255.53;5083482;28;20140;-91
2022/01/29 10:57:04;;;;;;;14.15;9.13;;;;;;;10.65;81.51;102262.63;5088042;28;20040;-91
2022/01/29 10:59:53;;;;;;;21.08;13.35;;;;;;;10.70;81.17;102259.88;5085156;28;20540;-90
2022/01/29 11:02:21;;;;;;;20.33;13.95;;;;;;;10.64;81.25;102255.59;5080263;28;20531;-91
2022/01/29 11:04:48;;;;;;;16.15;11.32;;;;;;;10.76;81.34;102258.91;5084184;28;20086;-91
2022/01/29 11:07:17;;;;;;;15.55;9.00;;;;;;;10.74;80.14;102240.41;5074662;28;20028;-92
2022/01/29 11:09:45;;;;;;;14.90;9.63;;;;;;;10.80;80.31;102250.00;5074517;28;20122;-91
2022/01/29 11:12:12;;;;;;;13.88;8.07;;;;;;;10.89;80.13;102247.19;5079534;28;20475;-91
2022/01/29 11:14:38;;;;;;;14.77;10.20;;;;;;;10.85;80.38;102227.84;5081917;28;20349;-91
2022/01/29 11:17:04;;;;;;;12.95;8.35;;;;;;;10.83;79.78;102234.97;5081750;28;20356;-91
2022/01/29 11:19:31;;;;;;;12.00;7.85;;;;;;;10.96;79.21;102235.59;5080208;28;20036;-91
2022/01/29 11:21:59;;;;;;;17.23;10.05;;;;;;;10.94;79.62;102232.09;5074483;28;20024;-91
2022/01/29 11:24:27;;;;;;;11.07;7.65;;;;;;;10.99;79.19;102227.59;5085895;28;20114;-91
2022/01/29 11:26:53;;;;;;;14.48;9.93;;;;;;;10.96;79.33;102220.59;5085357;28;20036;-91